Time;durP1;ratioP1;P1;durP2;ratioP2;P2;SDS_P1;SDS_P2;PMS_P1;PMS_P2;Temp;Humidity;BMP_temperature;BMP_pressure;BME280_temperature;BME280_humidity;BME280_pressure;Samples;Min_cycle;Max_cycle;Signal;HPM_P1;HPM_P2
2022/11/05 00:11:03;;;;;;;16.48;8.15;;;8.30;99.90;;;;;;5028550;28;20380;-68
2022/11/05 00:19:08;;;;;;;16.83;7.88;;;8.40;99.90;;;;;;5029712;28;20044;-67
2022/11/05 00:27:10;;;;;;;13.45;6.85;;;8.50;99.90;;;;;;5029474;28;20507;-67
2022/11/05 00:29:37;;;;;;;17.13;6.10;;;8.60;99.90;;;;;;5027812;28;20046;-67
2022/11/05 00:32:04;;;;;;;12.80;6.63;;;8.50;99.90;;;;;;5029758;28;20124;-67
2022/11/05 00:34:31;;;;;;;10.93;6.07;;;8.60;99.90;;;;;;5030206;28;20042;-68
2022/11/05 00:36:59;;;;;;;10.00;6.15;;;8.60;99.90;;;;;;5033272;28;20053;-68
2022/11/05 00:39:26;;;;;;;17.02;9.32;;;8.60;99.90;;;;;;5033410;28;20397;-67
2022/11/05 00:50:11;;;;;;;11.35;5.80;;;8.70;99.90;;;;;;5032812;28;20508;-67
2022/11/05 00:55:33;;;;;;;11.25;6.18;;;8.70;99.90;;;;;;5032740;28;20041;-68
2022/11/05 00:58:02;;;;;;;9.93;5.70;;;8.70;99.90;;;;;;5031294;28;20124;-68
2022/11/05 01:00:31;;;;;;;10.90;6.10;;;8.70;99.90;;;;;;5023387;28;20045;-68
2022/11/05 01:03:00;;;;;;;11.70;6.40;;;8.70;99.90;;;;;;5024551;28;20416;-68
2022/11/05 01:05:29;;;;;;;10.68;6.38;;;8.70;99.90;;;;;;5032594;28;20053;-68
2022/11/05 01:07:56;;;;;;;10.48;5.38;;;8.70;99.90;;;;;;5026727;28;20046;-68
2022/11/05 01:10:24;;;;;;;8.90;5.72;;;8.70;99.90;;;;;;5027355;28;20495;-68
2022/11/05 01:12:52;;;;;;;12.60;6.90;;;8.70;99.90;;;;;;5026763;28;20369;-68
2022/11/05 01:15:20;;;;;;;11.30;6.10;;;8.80;99.90;;;;;;5016752;28;20389;-68
2022/11/05 01:17:47;;;;;;;9.88;5.38;;;8.80;99.90;;;;;;5011098;28;20140;-68
2022/11/05 01:20:15;;;;;;;15.82;5.95;;;8.80;99.90;;;;;;5016698;28;20543;-68
2022/11/05 01:22:42;;;;;;;11.10;5.38;;;8.80;99.90;;;;;;5030677;28;20045;-68
2022/11/05 01:25:10;;;;;;;10.20;5.65;;;8.80;99.90;;;;;;5031254;28;20049;-68
2022/11/05 01:27:37;;;;;;;11.50;6.35;;;8.70;99.90;;;;;;5027688;28;20065;-68
2022/11/05 01:30:07;;;;;;;8.82;5.55;;;8.70;99.90;;;;;;5021577;28;20821;-68
2022/11/05 01:32:36;;;;;;;12.88;6.57;;;8.70;99.90;;;;;;5017046;28;20053;-68
2022/11/05 01:35:09;;;;;;;9.88;5.68;;;8.70;99.90;;;;;;5029353;28;20061;-68
2022/11/05 01:37:36;;;;;;;9.63;6.38;;;8.70;99.90;;;;;;5031756;28;20041;-68
2022/11/05 01:40:05;;;;;;;9.65;5.78;;;8.70;99.90;;;;;;5030560;28;20052;-69
2022/11/05 01:42:33;;;;;;;10.45;6.10;;;8.70;99.90;;;;;;5028622;28;20535;-68
2022/11/05 01:45:15;;;;;;;9.00;5.82;;;8.70;99.90;;;;;;5031725;28;20406;-68
2022/11/05 01:47:50;;;;;;;9.18;6.05;;;8.70;99.90;;;;;;5026820;28;20045;-68
2022/11/05 01:50:29;;;;;;;12.63;5.50;;;8.70;99.90;;;;;;5031288;28;20033;-68
2022/11/05 01:53:20;;;;;;;12.43;6.55;;;8.70;99.90;;;;;;5031223;28;20514;-68
2022/11/05 01:56:05;;;;;;;9.63;5.63;;;8.70;99.90;;;;;;5022906;28;20451;-67
2022/11/05 01:58:40;;;;;;;9.57;5.40;;;8.70;99.90;;;;;;5028751;28;20564;-66
2022/11/05 02:01:08;;;;;;;10.80;5.72;;;8.70;99.90;;;;;;5022948;28;20240;-66
2022/11/05 02:03:35;;;;;;;8.55;5.47;;;8.70;99.90;;;;;;5030004;28;20467;-67
2022/11/05 02:06:03;;;;;;;7.55;4.75;;;8.70;99.90;;;;;;5022390;28;20368;-66
2022/11/05 02:08:50;;;;;;;12.20;6.30;;;8.60;99.90;;;;;;5030921;28;20087;-67
2022/11/05 02:11:18;;;;;;;7.40;5.53;;;8.60;99.90;;;;;;5021374;28;20111;-68
2022/11/05 02:13:47;;;;;;;11.38;5.10;;;8.60;99.90;;;;;;5029882;28;20580;-67
2022/11/05 02:16:27;;;;;;;9.02;5.47;;;8.70;99.90;;;;;;5027329;28;20485;-67
2022/11/05 02:19:10;;;;;;;8.68;5.50;;;8.60;99.90;;;;;;5010251;28;20077;-67
2022/11/05 02:22:08;;;;;;;7.03;4.85;;;8.70;99.90;;;;;;5016756;28;20558;-68
2022/11/05 02:24:35;;;;;;;11.20;5.45;;;8.70;99.90;;;;;;5027124;28;20046;-68
2022/11/05 02:27:11;;;;;;;8.82;4.88;;;8.70;99.90;;;;;;5025380;28;20064;-68
2022/11/05 02:30:08;;;;;;;8.77;5.88;;;8.70;99.90;;;;;;5018251;28;20046;-68
2022/11/05 02:32:45;;;;;;;9.40;5.85;;;8.70;99.90;;;;;;5017892;28;20057;-67
2022/11/05 02:35:49;;;;;;;10.88;5.80;;;8.70;99.90;;;;;;5023655;28;20122;-68
2022/11/05 02:38:22;;;;;;;7.93;5.20;;;8.80;99.90;;;;;;5027518;28;20498;-67
2022/11/05 02:41:04;;;;;;;10.13;4.90;;;8.80;99.90;;;;;;5029879;28;20038;-68
2022/11/05 02:43:56;;;;;;;;;;;8.80;99.90;;;;;;5008264;28;20048;-68
2022/11/05 02:46:49;;;;;;;8.57;5.88;;;8.80;99.90;;;;;;5021557;28;19925;-68
2022/11/05 02:49:32;;;;;;;12.38;6.35;;;8.80;99.90;;;;;;5014810;28;20046;-68
2022/11/05 02:52:08;;;;;;;8.38;6.10;;;8.80;99.90;;;;;;5018882;28;20053;-68
2022/11/05 02:54:44;;;;;;;9.10;5.47;;;8.80;99.90;;;;;;5014467;28;20060;-67
2022/11/05 02:57:11;;;;;;;7.97;5.63;;;8.80;99.90;;;;;;5026061;28;20038;-68
2022/11/05 02:59:39;;;;;;;8.18;5.65;;;8.70;99.90;;;;;;5026885;28;20049;-68
2022/11/05 03:02:06;;;;;;;11.02;6.00;;;8.70;99.90;;;;;;5029226;28;20068;-68
2022/11/05 03:04:34;;;;;;;8.63;5.05;;;8.70;99.90;;;;;;5025509;28;20072;-68
2022/11/05 03:07:13;;;;;;;10.82;5.82;;;8.80;99.90;;;;;;5024566;28;20092;-68
2022/11/05 03:09:49;;;;;;;11.40;5.82;;;8.70;99.90;;;;;;5006084;28;20061;-68
2022/11/05 03:12:22;;;;;;;10.23;5.60;;;8.70;99.90;;;;;;5042697;28;20072;-67
2022/11/05 03:15:37;;;;;;;9.43;5.90;;;8.60;99.90;;;;;;5020137;28;20513;-67
2022/11/05 03:18:19;;;;;;;8.68;5.68;;;8.60;99.90;;;;;;4986177;28;20129;-67
2022/11/05 03:20:53;;;;;;;10.00;5.40;;;8.60;99.90;;;;;;4968572;28;20390;-67
2022/11/05 03:23:47;;;;;;;9.73;6.35;;;8.60;99.90;;;;;;4979675;28;20574;-68
2022/11/05 03:26:30;;;;;;;10.55;6.03;;;8.60;99.90;;;;;;4976031;28;20046;-66
2022/11/05 03:29:05;;;;;;;10.18;5.43;;;8.60;99.90;;;;;;4986635;28;20066;-68
2022/11/05 03:31:35;;;;;;;8.75;5.90;;;8.70;99.90;;;;;;4984522;28;20088;-68
2022/11/05 03:34:06;;;;;;;10.15;6.07;;;8.70;99.90;;;;;;4983983;28;20042;-67
2022/11/05 03:36:40;;;;;;;11.07;5.88;;;8.70;99.90;;;;;;4985160;28;20061;-68
2022/11/05 03:39:13;;;;;;;8.60;5.10;;;8.60;99.90;;;;;;4985161;28;20050;-68
2022/11/05 03:41:45;;;;;;;10.70;5.43;;;8.70;99.90;;;;;;4987165;28;20054;-68
2022/11/05 03:44:16;;;;;;;9.35;5.90;;;8.70;99.90;;;;;;4986686;28;20069;-68
2022/11/05 03:46:48;;;;;;;10.97;5.43;;;8.70;99.90;;;;;;4987926;28;20134;-68
2022/11/05 03:49:20;;;;;;;10.60;5.93;;;8.70;99.90;;;;;;4971458;28;20061;-68
2022/11/05 03:52:11;;;;;;;9.70;6.10;;;8.70;99.90;;;;;;5005970;28;20045;-68
2022/11/05 03:54:38;;;;;;;10.38;6.10;;;8.70;99.90;;;;;;5021986;28;20041;-68
2022/11/05 03:57:19;;;;;;;12.50;6.78;;;8.70;99.90;;;;;;5022083;28;20058;-68
2022/11/05 03:59:49;;;;;;;10.05;5.13;;;8.70;99.90;;;;;;5011418;28;20508;-67
2022/11/05 04:02:18;;;;;;;9.63;6.72;;;8.70;99.90;;;;;;5013236;28;20493;-68
2022/11/05 04:04:46;;;;;;;10.80;6.57;;;8.60;99.90;;;;;;5026505;28;20053;-68
2022/11/05 04:18:16;;;;;;;11.77;7.50;;;8.50;99.90;;;;;;5026721;28;20503;-68
2022/11/05 04:26:15;;;;;;;12.70;8.52;;;8.40;99.90;;;;;;5030251;28;20049;-68
2022/11/05 04:31:34;;;;;;;13.07;8.90;;;8.30;99.90;;;;;;5019040;28;20100;-68
2022/11/05 04:34:01;;;;;;;13.35;8.02;;;8.30;99.90;;;;;;5025449;28;20049;-68
2022/11/05 04:36:28;;;;;;;13.52;8.38;;;8.20;99.90;;;;;;5031660;28;20118;-69
2022/11/05 04:38:56;;;;;;;16.95;9.30;;;8.20;99.90;;;;;;5019416;28;20041;-67
2022/11/05 04:41:23;;;;;;;13.75;8.70;;;8.20;99.90;;;;;;5020922;28;20053;-67
2022/11/05 04:43:51;;;;;;;15.02;9.38;;;8.30;99.90;;;;;;5023084;28;20045;-67
2022/11/05 04:46:18;;;;;;;13.70;8.77;;;8.30;99.90;;;;;;5026378;28;20488;-67
2022/11/05 04:48:45;;;;;;;13.63;8.93;;;8.40;99.90;;;;;;5032671;28;20506;-67
2022/11/05 04:51:13;;;;;;;14.95;8.73;;;8.40;99.90;;;;;;5031407;28;20116;-68
2022/11/05 04:53:40;;;;;;;14.65;8.93;;;8.40;99.90;;;;;;5020555;28;20419;-68
2022/11/05 04:56:09;;;;;;;14.45;9.02;;;8.40;99.90;;;;;;5031114;28;20064;-67
2022/11/05 04:58:42;;;;;;;14.13;8.38;;;8.40;99.90;;;;;;5026052;28;20046;-67
2022/11/05 05:01:15;;;;;;;14.73;8.07;;;8.50;99.90;;;;;;5016443;28;20053;-68
2022/11/05 05:03:43;;;;;;;13.57;8.55;;;8.50;99.90;;;;;;5023767;28;20112;-66
2022/11/05 05:06:10;;;;;;;13.82;8.45;;;8.50;99.90;;;;;;5021104;28;20041;-68
2022/11/05 05:08:37;;;;;;;12.15;9.00;;;8.50;99.90;;;;;;5031327;28;20045;-67
2022/11/05 05:11:08;;;;;;;14.68;8.93;;;8.50;99.90;;;;;;5031115;28;20801;-68
2022/11/05 05:13:35;;;;;;;14.15;8.82;;;8.50;99.90;;;;;;5021327;28;20100;-67
2022/11/05 05:16:23;;;;;;;13.25;9.35;;;8.50;99.90;;;;;;5031023;28;20065;-67
2022/11/05 05:18:50;;;;;;;15.95;9.18;;;8.50;99.90;;;;;;5032496;28;20072;-67
2022/11/05 05:21:39;;;;;;;14.02;9.10;;;8.50;99.90;;;;;;5029413;28;20057;-67
2022/11/05 05:24:12;;;;;;;15.70;10.13;;;8.60;99.90;;;;;;5031686;28;20087;-67
2022/11/05 05:26:45;;;;;;;13.18;8.95;;;8.60;99.90;;;;;;5031644;28;20068;-67
2022/11/05 05:29:13;;;;;;;13.93;9.35;;;8.70;99.90;;;;;;5027371;28;20044;-67
2022/11/05 05:31:41;;;;;;;16.10;9.27;;;8.70;99.90;;;;;;5025327;28;20132;-68
2022/11/05 05:34:11;;;;;;;16.42;9.57;;;8.70;99.90;;;;;;5026992;28;20049;-67
2022/11/05 05:36:38;;;;;;;17.30;10.32;;;8.80;99.90;;;;;;5029795;28;20046;-68
2022/11/05 05:39:07;;;;;;;17.52;10.10;;;8.80;99.90;;;;;;5028575;28;20049;-67
2022/11/05 05:41:34;;;;;;;19.80;12.43;;;8.80;99.90;;;;;;5026278;28;20045;-68
2022/11/05 05:44:04;;;;;;;17.35;11.98;;;8.70;99.90;;;;;;5030957;28;20145;-68
2022/11/05 05:46:31;;;;;;;18.67;12.15;;;8.70;99.90;;;;;;5031711;28;20045;-68
2022/11/05 05:48:59;;;;;;;20.38;12.30;;;8.70;99.90;;;;;;5029337;28;20076;-68
2022/11/05 05:51:26;;;;;;;22.08;12.73;;;8.70;99.90;;;;;;5017462;28;20061;-68
2022/11/05 05:53:54;;;;;;;21.05;12.95;;;8.80;99.90;;;;;;5030802;28;20037;-68
2022/11/05 05:56:21;;;;;;;16.67;11.10;;;8.80;99.90;;;;;;5031853;28;20089;-68
2022/11/05 05:58:48;;;;;;;17.38;11.30;;;8.80;99.90;;;;;;5029949;28;20056;-68
2022/11/05 06:01:17;;;;;;;17.20;11.32;;;8.80;99.90;;;;;;5030010;28;20460;-68
2022/11/05 06:03:46;;;;;;;16.58;10.90;;;8.80;99.90;;;;;;5018007;28;20080;-68
2022/11/05 06:06:14;;;;;;;15.10;10.85;;;8.80;99.90;;;;;;5045336;28;20113;-68
2022/11/05 06:08:42;;;;;;;18.13;11.75;;;8.80;99.90;;;;;;5031400;28;20484;-68
2022/11/05 06:11:09;;;;;;;20.70;11.43;;;8.80;99.90;;;;;;5023766;28;20479;-68
2022/11/05 06:13:37;;;;;;;17.90;11.80;;;8.80;99.90;;;;;;5023693;28;20042;-68
2022/11/05 06:16:08;;;;;;;19.40;12.38;;;8.80;99.90;;;;;;5027060;28;20054;-68
2022/11/05 06:18:36;;;;;;;15.57;10.68;;;8.80;99.90;;;;;;5024784;28;20149;-68
2022/11/05 06:21:09;;;;;;;19.80;12.73;;;8.90;99.90;;;;;;5029838;28;20056;-68
2022/11/05 06:23:38;;;;;;;20.50;12.73;;;8.90;99.90;;;;;;5030708;28;20067;-68
2022/11/05 06:26:08;;;;;;;20.63;13.18;;;8.80;99.90;;;;;;5029776;28;20424;-68
2022/11/05 06:28:35;;;;;;;19.58;13.32;;;8.80;99.90;;;;;;5030051;28;20555;-68
2022/11/05 06:31:03;;;;;;;18.92;12.68;;;8.80;99.90;;;;;;5027236;28;20052;-68
2022/11/05 06:33:30;;;;;;;22.25;13.60;;;8.80;99.90;;;;;;5020928;28;20042;-67
2022/11/05 06:35:59;;;;;;;20.02;12.63;;;8.80;99.90;;;;;;5029171;28;20475;-68
2022/11/05 06:38:30;;;;;;;21.25;13.50;;;8.80;99.90;;;;;;5029995;28;20420;-68
2022/11/05 06:40:58;;;;;;;21.02;13.02;;;8.90;99.90;;;;;;5025552;28;20056;-68
2022/11/05 06:43:28;;;;;;;20.52;14.60;;;8.90;99.90;;;;;;5028490;28;20037;-67
2022/11/05 06:45:56;;;;;;;27.38;14.93;;;8.90;99.90;;;;;;5027737;28;20152;-68
2022/11/05 06:48:24;;;;;;;23.23;14.45;;;8.90;99.90;;;;;;5024896;28;20506;-67
2022/11/05 06:50:51;;;;;;;19.23;12.80;;;9.00;99.90;;;;;;5026615;28;20045;-67
2022/11/05 06:53:18;;;;;;;24.58;13.00;;;9.00;99.90;;;;;;5025677;28;20037;-67
2022/11/05 06:55:49;;;;;;;29.35;15.50;;;9.00;99.90;;;;;;5021594;28;20487;-68
2022/11/05 06:58:16;;;;;;;39.42;17.92;;;9.00;99.90;;;;;;5027086;28;20147;-68
2022/11/05 07:00:44;;;;;;;37.63;19.10;;;9.00;99.90;;;;;;5024610;28;20553;-67
2022/11/05 07:03:12;;;;;;;30.50;16.63;;;9.00;99.90;;;;;;5024275;28;20120;-67
2022/11/05 07:05:45;;;;;;;43.83;18.13;;;9.00;99.90;;;;;;5026019;28;20539;-67
2022/11/05 07:08:13;;;;;;;30.92;17.20;;;9.10;99.90;;;;;;5018492;28;20038;-68
2022/11/05 07:10:40;;;;;;;30.85;15.93;;;9.10;99.90;;;;;;5012894;28;20430;-68
2022/11/05 07:13:08;;;;;;;32.20;16.85;;;9.10;99.90;;;;;;5023633;28;20042;-68
2022/11/05 07:15:36;;;;;;;28.92;15.93;;;9.20;99.90;;;;;;5009031;28;20164;-67
2022/11/05 07:18:06;;;;;;;29.95;17.55;;;9.20;99.90;;;;;;5008434;28;20390;-68
2022/11/05 07:20:34;;;;;;;27.95;15.68;;;9.20;99.90;;;;;;5013957;28;20488;-68
2022/11/05 07:23:04;;;;;;;29.13;17.27;;;9.30;99.90;;;;;;5012296;28;20053;-68
2022/11/05 07:25:32;;;;;;;29.98;16.70;;;9.30;99.90;;;;;;5012844;28;20382;-68
2022/11/05 07:28:00;;;;;;;30.45;17.50;;;9.40;99.90;;;;;;5029211;28;20527;-67
2022/11/05 07:30:28;;;;;;;29.77;17.65;;;9.40;99.90;;;;;;5022509;28;20042;-68
2022/11/05 07:32:56;;;;;;;31.25;17.77;;;9.50;99.90;;;;;;5027014;28;20049;-68
2022/11/05 07:35:24;;;;;;;35.33;17.75;;;9.60;99.90;;;;;;5026096;28;20108;-69
2022/11/05 07:37:55;;;;;;;30.15;17.00;;;9.70;99.90;;;;;;5017154;28;20604;-68
2022/11/05 07:40:24;;;;;;;29.70;17.63;;;9.80;99.90;;;;;;5028156;28;20053;-68
2022/11/05 07:42:54;;;;;;;31.45;16.83;;;9.80;99.90;;;;;;5044767;28;20049;-68
2022/11/05 07:45:22;;;;;;;28.80;16.90;;;10.00;99.90;;;;;;5023975;28;20140;-69
2022/11/05 07:48:01;;;;;;;26.05;16.83;;;10.10;99.90;;;;;;5015452;28;20053;-68
2022/11/05 07:50:31;;;;;;;25.83;16.83;;;10.20;99.90;;;;;;5024613;28;20061;-68
2022/11/05 07:53:06;;;;;;;26.88;16.65;;;10.30;99.90;;;;;;5019446;28;20060;-68
2022/11/05 07:55:33;;;;;;;29.30;16.27;;;10.30;99.90;;;;;;5032353;28;20041;-68
2022/11/05 07:58:01;;;;;;;28.52;15.98;;;10.30;99.90;;;;;;5033360;28;20041;-68
2022/11/05 08:00:29;;;;;;;27.67;16.42;;;10.30;99.90;;;;;;5028661;28;20475;-68
2022/11/05 08:03:06;;;;;;;26.30;15.23;;;10.30;99.90;;;;;;5017600;28;20045;-68
2022/11/05 08:05:37;;;;;;;24.38;15.88;;;10.10;99.90;;;;;;5018553;28;20385;-68
2022/11/05 08:08:06;;;;;;;21.45;15.18;;;10.20;99.90;;;;;;5016911;28;20507;-68
2022/11/05 08:10:35;;;;;;;24.55;15.27;;;10.20;99.90;;;;;;5014108;28;20058;-68
2022/11/05 08:13:02;;;;;;;26.60;16.10;;;10.40;99.90;;;;;;5027391;28;20886;-68
2022/11/05 08:15:30;;;;;;;27.17;16.13;;;10.20;99.90;;;;;;5017037;28;20041;-68
2022/11/05 08:17:59;;;;;;;24.73;16.10;;;10.30;99.90;;;;;;5027854;28;20556;-68
2022/11/05 08:20:27;;;;;;;25.15;15.95;;;10.50;99.90;;;;;;5028097;28;20064;-68
2022/11/05 08:22:55;;;;;;;25.60;16.38;;;10.40;99.90;;;;;;4992686;28;20408;-67
2022/11/05 08:25:22;;;;;;;33.20;16.85;;;10.40;99.90;;;;;;5015149;28;20042;-68
2022/11/05 08:28:04;;;;;;;27.27;16.75;;;10.20;99.90;;;;;;5014688;28;20156;-68
2022/11/05 08:30:32;;;;;;;23.17;15.32;;;10.30;99.90;;;;;;5030817;28;20052;-68
2022/11/05 08:33:02;;;;;;;25.60;15.70;;;10.40;99.90;;;;;;5021804;28;20148;-68
2022/11/05 08:35:30;;;;;;;22.48;14.82;;;10.50;99.90;;;;;;5032266;28;20033;-68
2022/11/05 08:38:01;;;;;;;20.25;13.85;;;10.60;99.90;;;;;;5032831;28;20388;-67
2022/11/05 08:40:30;;;;;;;21.80;13.88;;;10.60;99.90;;;;;;5033315;28;20041;-67
2022/11/05 08:43:00;;;;;;;20.77;13.13;;;10.70;99.90;;;;;;5014822;28;20060;-68
2022/11/05 08:45:27;;;;;;;22.55;13.50;;;10.80;99.90;;;;;;5032931;28;20048;-67
2022/11/05 08:48:03;;;;;;;21.67;13.52;;;10.90;99.90;;;;;;5030536;28;20045;-68
2022/11/05 08:50:31;;;;;;;15.48;12.07;;;10.90;99.90;;;;;;5032945;28;20048;-68
2022/11/05 08:52:59;;;;;;;20.05;13.07;;;11.00;99.90;;;;;;5026287;28;20141;-67
2022/11/05 08:55:26;;;;;;;19.05;12.65;;;10.90;99.90;;;;;;5021963;28;20204;-67
2022/11/05 08:58:06;;;;;;;19.83;12.65;;;10.90;99.90;;;;;;5020212;28;20056;-67
2022/11/05 09:00:36;;;;;;;19.80;13.50;;;11.00;99.90;;;;;;5032435;28;20055;-68
2022/11/05 09:03:06;;;;;;;24.00;15.60;;;11.30;99.90;;;;;;5020838;28;20060;-67
2022/11/05 09:05:37;;;;;;;21.48;14.50;;;11.30;99.90;;;;;;5030178;28;20292;-67
2022/11/05 09:08:12;;;;;;;21.02;14.60;;;11.30;99.90;;;;;;5031502;28;20148;-66
2022/11/05 09:10:41;;;;;;;22.83;14.43;;;11.10;99.90;;;;;;5021464;28;20042;-67
2022/11/05 09:13:09;;;;;;;26.80;15.27;;;10.90;99.90;;;;;;5015105;28;20479;-67
2022/11/05 09:15:49;;;;;;;26.45;16.13;;;10.90;99.90;;;;;;5018491;28;20049;-66
2022/11/05 09:18:17;;;;;;;23.88;16.35;;;10.90;99.90;;;;;;5015172;28;20044;-68
2022/11/05 09:20:45;;;;;;;23.88;16.35;;;10.80;99.90;;;;;;5014786;28;20060;-67
2022/11/05 09:23:14;;;;;;;25.00;15.95;;;10.90;99.90;;;;;;5015163;28;20060;-67
2022/11/05 09:25:41;;;;;;;22.27;16.20;;;10.90;99.90;;;;;;5026070;28;20137;-67
2022/11/05 09:28:20;;;;;;;29.55;17.45;;;10.90;99.90;;;;;;5026314;28;20517;-67
2022/11/05 09:30:50;;;;;;;25.63;16.55;;;10.90;99.90;;;;;;5029364;28;20496;-68
2022/11/05 09:33:21;;;;;;;30.15;18.65;;;11.00;99.90;;;;;;5023292;28;20048;-68
2022/11/05 09:35:49;;;;;;;26.58;18.20;;;11.00;99.90;;;;;;5032380;28;20574;-67
2022/11/05 09:38:17;;;;;;;27.13;17.75;;;11.10;99.90;;;;;;5031764;28;20043;-67
2022/11/05 09:41:02;;;;;;;26.45;17.48;;;11.30;99.90;;;;;;5032038;28;20049;-67
2022/11/05 09:43:37;;;;;;;25.42;17.88;;;11.50;99.90;;;;;;5030324;28;20507;-67
2022/11/05 09:46:20;;;;;;;26.35;17.00;;;11.70;99.90;;;;;;5031066;28;20472;-68
2022/11/05 09:49:04;;;;;;;25.15;17.35;;;11.90;99.90;;;;;;5031785;28;20045;-67
2022/11/05 09:51:32;;;;;;;24.23;16.48;;;12.10;99.90;;;;;;5031377;28;20041;-68
2022/11/05 09:54:01;;;;;;;22.80;15.40;;;12.20;99.90;;;;;;5045089;28;20055;-67
2022/11/05 09:56:33;;;;;;;23.77;16.02;;;12.60;99.90;;;;;;5029782;28;20049;-67
2022/11/05 09:59:12;;;;;;;21.67;16.02;;;12.60;99.90;;;;;;5029515;28;20504;-67
2022/11/05 10:01:41;;;;;;;25.25;16.02;;;12.70;99.90;;;;;;5030582;28;20050;-67
2022/11/05 10:04:13;;;;;;;24.77;15.40;;;12.80;99.90;;;;;;5029696;28;20091;-66
2022/11/05 10:07:03;;;;;;;25.85;15.98;;;12.50;99.90;;;;;;5031364;28;20077;-66
2022/11/05 10:09:39;;;;;;;26.15;17.15;;;12.40;99.90;;;;;;5020581;28;20041;-67
2022/11/05 10:12:29;;;;;;;24.20;16.70;;;12.20;99.90;;;;;;5028299;28;20124;-67
2022/11/05 10:15:16;;;;;;;20.95;15.45;;;12.10;99.90;;;;;;5022573;28;20530;-67
2022/11/05 10:17:48;;;;;;;22.17;15.18;;;12.10;99.90;;;;;;5025571;28;20442;-68
2022/11/05 10:20:32;;;;;;;22.52;15.85;;;12.20;99.90;;;;;;5024568;28;20590;-68
2022/11/05 10:23:08;;;;;;;18.50;14.48;;;12.20;99.90;;;;;;5023891;28;20044;-69
2022/11/05 10:25:40;;;;;;;23.70;15.40;;;12.40;99.90;;;;;;5023720;28;20438;-67
2022/11/05 10:28:13;;;;;;;26.17;18.33;;;12.40;99.90;;;;;;5019502;28;20148;-68
2022/11/05 10:30:41;;;;;;;22.83;15.27;;;12.60;99.90;;;;;;5027147;28;20041;-67
2022/11/05 10:33:12;;;;;;;22.23;14.88;;;12.50;99.90;;;;;;5016867;28;20048;-66
2022/11/05 10:35:48;;;;;;;19.42;13.45;;;12.60;99.90;;;;;;5025403;28;20048;-67
2022/11/05 10:38:16;;;;;;;19.23;14.45;;;12.50;99.90;;;;;;5026058;28;20377;-67
2022/11/05 10:41:21;;;;;;;21.23;14.68;;;12.50;99.90;;;;;;5016288;28;20135;-67
2022/11/05 10:43:52;;;;;;;20.20;14.43;;;12.50;99.90;;;;;;5028634;28;20468;-67
2022/11/05 10:46:37;;;;;;;17.80;13.05;;;12.50;99.90;;;;;;5037406;28;20096;-66
2022/11/05 10:49:51;;;;;;;18.42;12.13;;;12.50;99.90;;;;;;5017014;28;20041;-67
2022/11/05 10:52:22;;;;;;;23.65;14.38;;;12.30;99.90;;;;;;5017563;28;20371;-66
2022/11/05 10:54:53;;;;;;;24.05;15.38;;;12.00;99.90;;;;;;5022573;28;20047;-66
2022/11/05 10:57:32;;;;;;;21.70;14.35;;;12.10;99.90;;;;;;5027476;28;20052;-66
2022/11/05 11:00:14;;;;;;;21.77;14.07;;;12.00;99.90;;;;;;5028055;28;20575;-68
2022/11/05 11:02:45;;;;;;;20.58;14.05;;;12.20;99.90;;;;;;5017941;28;20152;-67
2022/11/05 11:05:30;;;;;;;21.75;14.38;;;12.40;99.90;;;;;;5042387;28;20140;-67
2022/11/05 11:08:08;;;;;;;21.35;14.82;;;12.40;99.90;;;;;;5042506;28;20041;-67
2022/11/05 11:10:57;;;;;;;22.35;13.38;;;12.40;99.90;;;;;;5020870;28;20057;-67
2022/11/05 11:13:47;;;;;;;21.45;14.20;;;12.40;99.90;;;;;;5026849;28;20052;-67
2022/11/05 11:16:22;;;;;;;22.13;14.45;;;12.40;99.90;;;;;;5026306;28;20431;-67
2022/11/05 11:18:55;;;;;;;21.88;13.60;;;12.40;99.90;;;;;;5024356;28;20038;-67
2022/11/05 11:21:23;;;;;;;22.50;14.60;;;12.50;99.90;;;;;;5027928;28;20048;-68
2022/11/05 11:23:56;;;;;;;23.48;14.52;;;12.70;99.90;;;;;;5016014;28;20072;-67
2022/11/05 11:26:27;;;;;;;22.98;14.43;;;12.80;99.90;;;;;;5022653;28;20049;-67
2022/11/05 11:29:04;;;;;;;23.52;13.88;;;13.00;99.90;;;;;;5014162;28;20086;-68
2022/11/05 11:31:36;;;;;;;19.80;13.80;;;13.30;99.90;;;;;;5021547;28;20056;-68
2022/11/05 11:34:09;;;;;;;19.13;13.25;;;13.70;99.90;;;;;;5013205;28;20148;-67
2022/11/05 11:36:46;;;;;;;21.63;13.18;;;13.90;99.90;;;;;;5022850;28;20133;-68
2022/11/05 11:39:21;;;;;;;17.48;12.23;;;14.30;99.90;;;;;;5020683;28;20052;-68
2022/11/05 11:41:56;;;;;;;19.08;11.95;;;15.10;99.90;;;;;;5029247;28;20542;-68
2022/11/05 11:44:31;;;;;;;17.08;11.93;;;16.90;99.90;;;;;;5025411;28;20115;-68
2022/11/05 11:47:09;;;;;;;19.38;12.40;;;17.10;99.90;;;;;;5031835;28;20099;-67
2022/11/05 11:49:54;;;;;;;17.77;13.02;;;17.20;99.90;;;;;;5028557;28;20119;-67
2022/11/05 11:52:30;;;;;;;18.00;12.23;;;16.60;99.90;;;;;;5014593;28;20038;-67
2022/11/05 11:55:20;;;;;;;18.70;13.07;;;16.40;99.90;;;;;;5016392;28;20050;-68
2022/11/05 11:57:49;;;;;;;20.55;14.35;;;15.60;99.90;;;;;;5017869;28;20154;-68
2022/11/05 12:00:18;;;;;;;19.00;13.05;;;15.10;99.90;;;;;;5014724;28;20046;-68
2022/11/05 12:03:13;;;;;;;19.92;12.43;;;14.40;99.90;;;;;;5022387;28;20052;-67
2022/11/05 12:06:11;;;;;;;19.95;13.65;;;14.10;99.90;;;;;;5023440;28;20505;-67
2022/11/05 12:08:39;;;;;;;19.40;13.55;;;13.60;99.90;;;;;;4992849;28;20459;-67
2022/11/05 12:11:24;;;;;;;17.65;12.95;;;13.30;99.90;;;;;;5023046;28;20037;-67
2022/11/05 12:14:03;;;;;;;18.63;13.07;;;12.80;99.90;;;;;;5025136;28;20128;-67
2022/11/05 12:16:33;;;;;;;19.98;12.88;;;12.50;99.90;;;;;;5025080;28;20072;-67
2022/11/05 12:19:00;;;;;;;19.45;13.10;;;12.10;99.90;;;;;;5018480;28;20041;-66
2022/11/05 12:21:57;;;;;;;21.60;13.07;;;12.00;99.90;;;;;;5013723;28;20117;-66
2022/11/05 12:24:47;;;;;;;21.33;11.45;;;11.80;99.90;;;;;;5023009;28;20095;-67
2022/11/05 12:28:02;;;;;;;21.80;11.48;;;11.80;99.90;;;;;;5015021;28;20068;-65
2022/11/05 12:30:41;;;;;;;16.70;10.52;;;11.60;99.90;;;;;;5018053;28;20108;-67
2022/11/05 12:33:34;;;;;;;16.48;10.10;;;11.60;99.90;;;;;;5027077;28;20380;-67
2022/11/05 12:36:21;;;;;;;;;;;11.40;99.90;;;;;;5032772;28;20049;-66
2022/11/05 12:39:12;;;;;;;19.63;10.57;;;11.50;99.90;;;;;;4999850;28;20026;-66
2022/11/05 12:42:00;;;;;;;20.10;11.95;;;11.50;99.90;;;;;;5044186;28;20124;-67
2022/11/05 12:44:52;;;;;;;16.55;11.50;;;11.80;99.90;;;;;;5023880;28;20042;-68
2022/11/05 12:47:34;;;;;;;20.75;11.10;;;11.80;99.90;;;;;;5036980;28;20045;-67
2022/11/05 12:50:28;;;;;;;17.67;10.35;;;11.90;99.90;;;;;;5030972;28;20041;-67
2022/11/05 12:52:55;;;;;;;20.15;11.65;;;11.70;99.90;;;;;;5043217;28;20080;-67
2022/11/05 12:55:26;;;;;;;16.45;11.02;;;11.90;99.90;;;;;;5027664;28;20095;-67
2022/11/05 12:57:58;;;;;;;20.55;11.88;;;11.90;99.90;;;;;;5026949;28;20570;-67
2022/11/05 13:00:25;;;;;;;;;;;12.10;99.90;;;;;;5024645;28;20125;-67
2022/11/05 13:03:26;;;;;;;16.55;10.80;;;12.00;99.90;;;;;;5023467;28;20356;-66
2022/11/05 13:06:23;;;;;;;20.63;11.18;;;12.10;99.90;;;;;;5023754;28;20058;-67
2022/11/05 13:09:16;;;;;;;17.15;11.73;;;12.00;99.90;;;;;;5014915;28;20077;-67
2022/11/05 13:11:52;;;;;;;16.33;11.02;;;12.00;99.90;;;;;;5030292;28;20065;-67
2022/11/05 13:14:58;;;;;;;18.23;11.55;;;11.70;99.90;;;;;;5039459;28;20038;-69
2022/11/05 13:17:52;;;;;;;20.75;11.77;;;11.90;99.90;;;;;;5041614;28;20463;-67
2022/11/05 13:20:23;;;;;;;19.15;12.25;;;12.10;99.90;;;;;;5032150;28;20086;-67
2022/11/05 13:23:28;;;;;;;19.77;10.93;;;12.10;99.90;;;;;;5028673;28;20049;-67
2022/11/05 13:26:05;;;;;;;20.02;11.98;;;12.20;99.90;;;;;;5006170;28;20288;-68
2022/11/05 13:28:50;;;;;;;17.70;11.25;;;12.30;99.90;;;;;;5015366;28;20048;-68
2022/11/05 13:31:31;;;;;;;16.70;10.43;;;12.50;99.90;;;;;;5001714;28;20499;-68
2022/11/05 13:34:03;;;;;;;17.15;9.98;;;12.70;99.90;;;;;;5028209;28;20054;-68
2022/11/05 13:39:46;;;;;;;14.02;10.85;;;12.70;99.90;;;;;;5040580;28;20048;-67
2022/11/05 13:42:32;;;;;;;16.13;11.55;;;12.50;99.90;;;;;;5042494;28;20129;-67
2022/11/05 13:45:12;;;;;;;18.98;11.57;;;12.70;99.90;;;;;;5023299;28;20042;-67
2022/11/05 13:48:09;;;;;;;19.40;12.70;;;12.50;99.90;;;;;;5029022;28;20060;-66
2022/11/05 13:50:50;;;;;;;18.75;11.90;;;12.20;99.90;;;;;;5017610;28;20049;-68
2022/11/05 13:53:41;;;;;;;17.58;11.13;;;12.00;99.90;;;;;;5027556;28;20045;-68
2022/11/05 13:56:31;;;;;;;15.63;11.20;;;12.10;99.90;;;;;;5017780;28;20480;-68
2022/11/05 13:59:04;;;;;;;13.88;8.70;;;12.10;99.90;;;;;;5017510;28;20196;-66
2022/11/05 14:01:48;;;;;;;16.73;9.32;;;12.10;99.90;;;;;;5024121;28;20070;-66
2022/11/05 14:04:34;;;;;;;13.20;8.68;;;12.20;99.90;;;;;;5014156;28;20054;-66
2022/11/05 14:07:14;;;;;;;13.02;7.55;;;13.90;99.90;;;;;;5013897;28;20049;-65
2022/11/05 14:09:42;;;;;;;12.40;8.68;;;15.20;99.90;;;;;;5022179;28;20045;-66